createdAt,value
2023-01-12T00:00:31.418Z,100629.53
2023-01-12T00:03:35.404Z,100619.97
2023-01-12T00:06:39.168Z,100620.84
2023-01-12T00:09:43.022Z,100616.41
2023-01-12T00:12:46.917Z,100618.03
2023-01-12T00:16:10.609Z,100615.31
2023-01-12T00:19:17.050Z,100610.09
2023-01-12T00:22:22.020Z,100616.31
2023-01-12T00:25:25.853Z,100609.53
2023-01-12T00:28:29.808Z,100614.81
2023-01-12T00:31:35.079Z,100609.63
2023-01-12T00:34:39.114Z,100608.03
2023-01-12T00:37:42.973Z,100614.16
2023-01-12T00:40:46.823Z,100618.47
2023-01-12T00:44:08.101Z,100616.78
2023-01-12T00:47:14.448Z,100614.25
2023-01-12T00:50:19.662Z,100629.84
2023-01-12T00:53:23.629Z,100614.16
2023-01-12T00:56:27.440Z,100625.34
2023-01-12T00:59:31.763Z,100619.25
2023-01-12T01:02:37.050Z,100609.59
2023-01-12T01:05:40.850Z,100611.84
2023-01-12T01:08:44.686Z,100625.88
2023-01-12T01:11:48.451Z,100626.84
2023-01-12T01:14:53.531Z,100622.38
2023-01-12T01:17:58.717Z,100631.22
2023-01-12T01:21:03.349Z,100624.97
2023-01-12T01:24:11.891Z,100624.34
2023-01-12T01:27:16.181Z,100619.25
2023-01-12T01:30:20.259Z,100616.69
2023-01-12T01:33:28.377Z,100610.66
2023-01-12T01:36:32.238Z,100602.84
2023-01-12T01:39:36.017Z,100602.88
2023-01-12T01:42:41.503Z,100604.41
2023-01-12T01:45:54.106Z,100613.16
2023-01-12T01:49:11.890Z,100615.81
2023-01-12T01:52:22.783Z,100613.47
2023-01-12T01:55:34.845Z,100610.97
2023-01-12T01:58:44.607Z,100609.38
2023-01-12T02:01:49.290Z,100603.47
2023-01-12T02:04:57.020Z,100604.63
2023-01-12T02:08:11.423Z,100604.00
2023-01-12T02:11:30.947Z,100603.19
2023-01-12T02:14:52.472Z,100592.59
2023-01-12T02:18:15.919Z,100587.66
2023-01-12T02:22:09.687Z,100600.50
2023-01-12T02:25:56.049Z,100599.88
2023-01-12T02:29:46.945Z,100596.44
2023-01-12T02:33:07.016Z,100595.66
2023-01-12T02:36:22.676Z,100589.75
2023-01-12T02:39:34.025Z,100582.81
2023-01-12T02:42:47.559Z,100570.75
2023-01-12T02:46:02.365Z,100576.91
2023-01-12T02:49:15.455Z,100582.06
2023-01-12T02:52:25.460Z,100571.38
2023-01-12T02:55:32.169Z,100566.28
2023-01-12T02:58:43.011Z,100565.38
2023-01-12T03:01:51.282Z,100557.41
2023-01-12T03:04:56.517Z,100547.16
2023-01-12T03:08:03.857Z,100550.44
2023-01-12T03:11:15.197Z,100542.59
2023-01-12T03:14:19.545Z,100549.53
2023-01-12T03:17:31.163Z,100548.56
2023-01-12T03:20:42.315Z,100532.81
2023-01-12T03:23:50.376Z,100533.59
2023-01-12T03:27:03.065Z,100540.47
2023-01-12T03:30:12.264Z,100529.84
2023-01-12T03:33:16.130Z,100528.88
2023-01-12T03:36:36.693Z,100523.53
2023-01-12T03:39:51.968Z,100512.09
2023-01-12T03:43:03.538Z,100517.31
2023-01-12T03:46:18.100Z,100514.75
2023-01-12T03:49:30.571Z,100512.91
2023-01-12T03:52:40.404Z,100523.78
2023-01-12T03:55:47.729Z,100508.13
2023-01-12T03:58:53.036Z,100503.94
2023-01-12T04:01:56.852Z,100505.53
2023-01-12T04:05:00.655Z,100502.16
2023-01-12T04:08:06.212Z,100500.66
2023-01-12T04:11:24.047Z,100499.84
2023-01-12T04:14:27.951Z,100499.94
2023-01-12T04:17:31.596Z,100491.38
2023-01-12T04:20:35.179Z,100487.09
2023-01-12T04:23:39.158Z,100487.09
2023-01-12T04:26:42.794Z,100482.75
2023-01-12T04:29:46.889Z,100473.13
2023-01-12T04:32:50.848Z,100458.38
2023-01-12T04:35:54.655Z,100456.59
2023-01-12T04:38:59.680Z,100450.53
2023-01-12T04:42:03.287Z,100452.25
2023-01-12T04:45:08.222Z,100440.94
2023-01-12T04:48:14.470Z,100431.28
2023-01-12T04:51:18.116Z,100417.34
2023-01-12T04:54:23.274Z,100426.09
2023-01-12T04:57:26.887Z,100419.06
2023-01-12T05:00:30.597Z,100415.47
2023-01-12T05:03:34.223Z,100405.88
2023-01-12T05:06:37.983Z,100398.97
2023-01-12T05:10:00.401Z,100391.97
2023-01-12T05:13:04.009Z,100392.69
2023-01-12T05:16:13.655Z,100383.25
2023-01-12T05:19:17.373Z,100383.25
2023-01-12T05:22:21.061Z,100382.41
2023-01-12T05:25:26.893Z,100365.97
2023-01-12T05:28:32.149Z,100365.16
2023-01-12T05:31:36.181Z,100352.09
2023-01-12T05:34:39.791Z,100347.66
2023-01-12T05:37:43.452Z,100334.44
2023-01-12T05:40:48.457Z,100331.00
2023-01-12T05:43:51.277Z,100323.03
2023-01-12T05:46:55.077Z,100327.34
2023-01-12T05:49:58.774Z,100322.09
2023-01-12T05:53:02.365Z,100306.34
2023-01-12T05:56:17.478Z,100299.25
2023-01-12T05:59:21.909Z,100292.41
2023-01-12T06:02:25.780Z,100287.19
2023-01-12T06:05:29.448Z,100285.47
2023-01-12T06:08:33.461Z,100279.31
2023-01-12T06:11:56.015Z,100272.31
2023-01-12T06:14:59.688Z,100274.88
2023-01-12T06:18:03.296Z,100262.63
2023-01-12T06:21:09.720Z,100257.56
2023-01-12T06:24:14.587Z,100234.03
2023-01-12T06:27:19.566Z,100222.81
2023-01-12T06:30:23.909Z,100217.59
2023-01-12T06:33:29.305Z,100214.16
2023-01-12T06:36:32.917Z,100210.59
2023-01-12T06:39:36.557Z,100214.78
2023-01-12T06:42:43.241Z,100201.75
2023-01-12T06:45:47.615Z,100202.41
2023-01-12T06:48:51.195Z,100186.03
2023-01-12T06:51:54.824Z,100184.25
2023-01-12T06:54:59.366Z,100183.53
2023-01-12T06:58:05.487Z,100183.47
2023-01-12T07:01:09.260Z,100165.97
2023-01-12T07:04:12.966Z,100146.78
2023-01-12T07:07:16.882Z,100119.97
2023-01-12T07:10:20.619Z,100106.09
2023-01-12T07:13:25.692Z,100091.38
2023-01-12T07:16:29.636Z,100075.75
2023-01-12T07:19:33.363Z,100113.94
2023-01-12T07:22:37.097Z,100081.78
2023-01-12T07:25:40.754Z,100078.22
2023-01-12T07:28:45.819Z,100073.13
2023-01-12T07:31:50.139Z,100080.06
2023-01-12T07:34:53.911Z,100073.19
2023-01-12T07:37:57.548Z,100064.47
2023-01-12T07:41:02.332Z,100063.75
2023-01-12T07:44:07.446Z,100060.25
2023-01-12T07:47:12.057Z,100069.09
2023-01-12T07:50:15.853Z,100056.25
2023-01-12T07:53:19.692Z,100063.09
2023-01-12T07:56:23.323Z,100071.81
2023-01-12T07:59:28.403Z,100062.25
2023-01-12T08:02:32.018Z,100057.97
2023-01-12T08:05:37.562Z,100054.38
2023-01-12T08:08:41.379Z,100043.06
2023-01-12T08:11:45.152Z,100049.16
2023-01-12T08:14:50.315Z,100038.59
2023-01-12T08:18:05.797Z,100033.28
2023-01-12T08:21:17.127Z,100036.53
2023-01-12T08:24:29.116Z,100045.03
2023-01-12T08:27:38.737Z,100045.09
2023-01-12T08:30:47.106Z,100040.53
2023-01-12T08:33:52.118Z,100049.97
2023-01-12T08:36:59.345Z,100045.47
2023-01-12T08:40:07.492Z,100049.69
2023-01-12T08:43:11.457Z,100039.94
2023-01-12T08:46:16.754Z,100037.22
2023-01-12T08:49:25.332Z,100045.88
2023-01-12T08:52:31.763Z,100046.53
2023-01-12T08:55:39.136Z,100039.41
2023-01-12T08:58:43.135Z,100039.41
2023-01-12T09:01:48.457Z,100038.41
2023-01-12T09:04:52.164Z,100034.66
2023-01-12T09:07:56.186Z,100036.25
2023-01-12T09:11:04.321Z,100042.28
2023-01-12T09:14:08.813Z,100043.84
2023-01-12T09:17:13.859Z,100050.53
2023-01-12T09:20:18.359Z,100051.31
2023-01-12T09:23:22.170Z,100050.34
2023-01-12T09:26:31.922Z,100052.84
2023-01-12T09:29:35.679Z,100053.66
2023-01-12T09:32:40.681Z,100056.16
2023-01-12T09:35:45.200Z,100057.63
2023-01-12T09:38:49.641Z,100064.31
2023-01-12T09:42:12.201Z,100059.03
2023-01-12T09:45:49.286Z,100058.97
2023-01-12T09:48:55.074Z,100064.94
2023-01-12T09:52:16.404Z,100059.59
2023-01-12T09:55:24.254Z,100070.72
2023-01-12T09:58:56.218Z,100073.72
2023-01-12T10:02:00.107Z,100067.41
2023-01-12T10:05:14.593Z,100089.91
2023-01-12T10:08:29.820Z,100089.66
2023-01-12T10:11:47.703Z,100091.19
2023-01-12T10:15:30.188Z,100094.66
2023-01-12T10:18:44.367Z,100090.41
2023-01-12T10:21:55.440Z,100093.94
2023-01-12T10:25:00.398Z,100093.81
2023-01-12T10:28:09.676Z,100105.84
2023-01-12T10:31:21.688Z,100106.53
2023-01-12T10:34:25.403Z,100096.84
2023-01-12T10:37:30.553Z,100091.38
2023-01-12T10:40:35.781Z,100098.09
2023-01-12T10:43:41.695Z,100104.94
2023-01-12T10:46:45.326Z,100104.94
2023-01-12T10:49:49.069Z,100106.59
2023-01-12T10:53:02.571Z,100100.41
2023-01-12T10:56:24.980Z,100110.03
2023-01-12T10:59:32.552Z,100101.16
2023-01-12T11:02:45.307Z,100109.75
2023-01-12T11:05:48.936Z,100099.19
2023-01-12T11:08:54.453Z,100109.53
2023-01-12T11:12:00.804Z,100095.50
2023-01-12T11:15:17.345Z,100105.75
2023-01-12T11:18:38.704Z,100112.78
2023-01-12T11:21:48.366Z,100112.94
2023-01-12T11:25:00.099Z,100111.19
2023-01-12T11:28:12.439Z,100122.28
2023-01-12T11:31:22.340Z,100116.16
2023-01-12T11:34:34.752Z,100122.28
2023-01-12T11:37:42.645Z,100114.38
2023-01-12T11:40:50.158Z,100114.16
2023-01-12T11:44:08.551Z,100117.59
2023-01-12T11:47:16.606Z,100125.19
2023-01-12T11:50:29.032Z,100122.94
2023-01-12T11:53:33.400Z,100130.81
2023-01-12T11:57:11.714Z,100126.41
2023-01-12T12:00:38.557Z,100123.59
2023-01-12T12:03:57.450Z,100130.16
2023-01-12T12:07:25.894Z,100140.22
2023-01-12T12:10:41.758Z,100126.81
2023-01-12T12:14:02.582Z,100139.78
2023-01-12T12:17:15.911Z,100138.13
2023-01-12T12:20:33.187Z,100134.75
2023-01-12T12:23:52.948Z,100134.75
2023-01-12T12:27:09.761Z,100142.59
2023-01-12T12:31:01.454Z,100143.50
2023-01-12T12:34:28.729Z,100152.03
2023-01-12T12:37:51.873Z,100151.09
2023-01-12T12:41:39.298Z,100147.63
2023-01-12T12:45:16.496Z,100149.28
2023-01-12T12:48:31.440Z,100150.72
2023-01-12T12:51:38.910Z,100144.41
2023-01-12T12:54:43.031Z,100154.38
2023-01-12T12:58:04.589Z,100159.34
2023-01-12T13:01:57.578Z,100153.25
2023-01-12T13:05:06.057Z,100154.38
2023-01-12T13:08:21.983Z,100166.53
2023-01-12T13:11:54.170Z,100169.97
2023-01-12T13:15:23.536Z,100172.66
2023-01-12T13:19:05.509Z,100173.50
2023-01-12T13:22:47.047Z,100164.72
2023-01-12T13:25:58.586Z,100172.75
2023-01-12T13:29:44.310Z,100177.31
2023-01-12T13:33:00.573Z,100184.50
2023-01-12T13:36:10.855Z,100176.50
2023-01-12T13:39:17.523Z,100179.91
2023-01-12T13:42:43.176Z,100187.78
2023-01-12T13:45:57.027Z,100189.44
2023-01-12T13:49:01.491Z,100190.19
2023-01-12T13:52:09.792Z,100198.28
2023-01-12T13:55:25.532Z,100201.78
2023-01-12T13:58:38.744Z,100195.84
2023-01-12T14:01:42.929Z,100193.16
2023-01-12T14:05:27.854Z,100206.28
2023-01-12T14:08:59.896Z,100196.69
2023-01-12T14:12:43.341Z,100209.03
2023-01-12T14:16:04.706Z,100208.22
2023-01-12T14:19:28.761Z,100210.84
2023-01-12T14:22:32.482Z,100210.97
2023-01-12T14:25:36.403Z,100211.13
2023-01-12T14:28:45.576Z,100216.28
2023-01-12T14:31:53.230Z,100218.84
2023-01-12T14:34:57.822Z,100209.47
2023-01-12T14:38:02.996Z,100214.66
2023-01-12T14:41:31.605Z,100210.44
2023-01-12T14:45:07.185Z,100212.47
2023-01-12T14:48:29.218Z,100216.25
2023-01-12T14:51:36.238Z,100204.19
2023-01-12T14:54:39.953Z,100214.88
2023-01-12T14:57:44.622Z,100206.34
2023-01-12T15:00:49.702Z,100206.53
2023-01-12T15:03:54.258Z,100205.69
2023-01-12T15:07:04.652Z,100205.94
2023-01-12T15:10:32.669Z,100202.53
2023-01-12T15:13:38.522Z,100211.41
2023-01-12T15:17:00.969Z,100207.09
2023-01-12T15:20:24.821Z,100214.16
2023-01-12T15:23:50.112Z,100216.66
2023-01-12T15:27:05.738Z,100201.72
2023-01-12T15:30:13.602Z,100200.94
2023-01-12T15:33:21.664Z,100203.31
2023-01-12T15:36:25.958Z,100201.59
2023-01-12T15:39:29.585Z,100203.44
2023-01-12T15:42:34.694Z,100198.13
2023-01-12T15:45:45.221Z,100198.00
2023-01-12T15:48:50.387Z,100200.81
2023-01-12T15:51:54.001Z,100202.66
2023-01-12T15:54:58.727Z,100194.91
2023-01-12T15:58:02.404Z,100185.47
2023-01-12T16:01:07.131Z,100189.03
2023-01-12T16:04:41.658Z,100186.56
2023-01-12T16:07:41.275Z,100188.47
2023-01-12T16:10:58.758Z,100184.16
2023-01-12T16:14:02.485Z,100177.19
2023-01-12T16:17:06.735Z,100165.88
2023-01-12T16:20:13.538Z,100174.56
2023-01-12T16:23:17.308Z,100157.19
2023-01-12T16:26:20.949Z,100154.56
2023-01-12T16:29:24.747Z,100162.44
2023-01-12T16:32:30.238Z,100152.88
2023-01-12T16:35:36.148Z,100142.41
2023-01-12T16:38:40.754Z,100145.00
2023-01-12T16:41:44.413Z,100143.16
2023-01-12T16:44:51.784Z,100134.41
2023-01-12T16:47:58.101Z,100130.81
2023-01-12T16:51:03.184Z,100137.72
2023-01-12T16:54:07.148Z,100135.94
2023-01-12T16:57:11.210Z,100127.16
2023-01-12T17:00:16.789Z,100130.56
2023-01-12T17:03:20.491Z,100122.56
2023-01-12T17:06:28.220Z,100115.31
2023-01-12T17:09:32.358Z,100120.69
2023-01-12T17:12:36.092Z,100111.13
2023-01-12T17:15:52.336Z,100117.31
2023-01-12T17:18:56.842Z,100113.75
2023-01-12T17:22:02.606Z,100116.56
2023-01-12T17:25:07.774Z,100118.28
2023-01-12T17:28:11.852Z,100107.94
2023-01-12T17:31:19.376Z,100110.59
2023-01-12T17:34:23.889Z,100112.38
2023-01-12T17:37:29.690Z,100101.00
2023-01-12T17:40:33.879Z,100103.53
2023-01-12T17:43:37.347Z,100098.38
2023-01-12T17:46:41.113Z,100099.34
2023-01-12T17:49:45.380Z,100095.81
2023-01-12T17:52:50.530Z,100098.44
2023-01-12T17:55:54.409Z,100101.13
2023-01-12T17:58:59.226Z,100095.97
2023-01-12T18:02:03.121Z,100082.97
2023-01-12T18:05:08.890Z,100079.44
2023-01-12T18:08:14.911Z,100088.88
2023-01-12T18:11:20.055Z,100081.88
2023-01-12T18:14:25.059Z,100071.31
2023-01-12T18:17:29.692Z,100069.59
2023-01-12T18:20:33.374Z,100068.72
2023-01-12T18:23:39.406Z,100066.16
2023-01-12T18:26:43.189Z,100063.47
2023-01-12T18:29:46.854Z,100061.94
2023-01-12T18:32:50.486Z,100058.50
2023-01-12T18:35:54.170Z,100050.66
2023-01-12T18:38:59.269Z,100061.00
2023-01-12T18:42:31.588Z,100059.09
2023-01-12T18:45:36.605Z,100057.41
2023-01-12T18:48:40.466Z,100051.31
2023-01-12T18:52:01.814Z,100051.31
2023-01-12T18:55:08.397Z,100045.22
2023-01-12T18:58:12.959Z,100047.84
2023-01-12T19:01:21.291Z,100048.72
2023-01-12T19:04:37.667Z,100041.63
2023-01-12T19:08:02.173Z,100051.06
2023-01-12T19:11:12.797Z,100045.69
2023-01-12T19:14:34.525Z,100042.44
2023-01-12T19:17:41.990Z,100041.50
2023-01-12T19:20:45.852Z,100047.53
2023-01-12T19:24:07.096Z,100050.28
2023-01-12T19:27:32.034Z,100048.31
2023-01-12T19:30:36.128Z,100054.34
2023-01-12T19:33:40.539Z,100048.31
2023-01-12T19:36:44.269Z,100047.53
2023-01-12T19:40:00.679Z,100064.88
2023-01-12T19:43:13.723Z,100071.03
2023-01-12T19:46:17.416Z,100065.84
2023-01-12T19:49:21.110Z,100060.75
2023-01-12T19:52:25.279Z,100060.84
2023-01-12T19:55:30.030Z,100059.03
2023-01-12T19:58:35.072Z,100061.78
2023-01-12T20:01:38.870Z,100051.31
2023-01-12T20:04:42.691Z,100053.13
2023-01-12T20:07:46.503Z,100048.78
2023-01-12T20:10:56.042Z,100042.03
2023-01-12T20:14:01.066Z,100054.31
2023-01-12T20:17:05.617Z,100060.22
2023-01-12T20:20:12.118Z,100065.31
2023-01-12T20:23:16.951Z,100075.78
2023-01-12T20:26:20.562Z,100069.66
2023-01-12T20:29:25.607Z,100073.94
2023-01-12T20:32:32.423Z,100082.22
2023-01-12T20:35:38.296Z,100088.50
2023-01-12T20:38:43.767Z,100084.94
2023-01-12T20:41:47.585Z,100091.00
2023-01-12T20:44:52.906Z,100115.47
2023-01-12T20:47:57.642Z,100087.41
2023-01-12T20:51:03.059Z,100085.88
2023-01-12T20:54:08.926Z,100091.22
2023-01-12T20:57:15.592Z,100083.28
2023-01-12T21:00:21.313Z,100073.03
2023-01-12T21:03:25.550Z,100070.56
2023-01-12T21:06:29.406Z,100087.03
2023-01-12T21:09:36.031Z,100078.22
2023-01-12T21:12:40.113Z,100066.75
2023-01-12T21:15:45.507Z,100069.59
2023-01-12T21:18:50.386Z,100060.09
2023-01-12T21:21:55.181Z,100065.38
2023-01-12T21:24:59.123Z,100069.72
2023-01-12T21:28:04.204Z,100058.25
2023-01-12T21:31:11.976Z,100071.31
2023-01-12T21:34:15.905Z,100064.41
2023-01-12T21:37:19.806Z,100066.22
2023-01-12T21:40:23.526Z,100065.84
2023-01-12T21:43:27.270Z,100068.53
2023-01-12T21:46:33.821Z,100064.94
2023-01-12T21:49:37.624Z,100068.47
2023-01-12T21:52:42.053Z,100056.28
2023-01-12T21:55:55.525Z,100061.66
2023-01-12T21:58:59.265Z,100055.53
2023-01-12T22:02:04.443Z,100048.72
2023-01-12T22:05:09.533Z,100051.47
2023-01-12T22:08:13.264Z,100040.78
2023-01-12T22:11:18.448Z,100045.13
2023-01-12T22:14:22.062Z,100042.44
2023-01-12T22:17:28.206Z,100041.41
2023-01-12T22:20:32.252Z,100036.16
2023-01-12T22:23:37.535Z,100040.59
2023-01-12T22:26:41.147Z,100037.97
2023-01-12T22:29:44.806Z,100046.78
2023-01-12T22:32:49.995Z,100045.22
2023-01-12T22:35:53.593Z,100040.78
2023-01-12T22:38:57.615Z,100039.97
2023-01-12T22:42:01.351Z,100039.28
2023-01-12T22:45:05.476Z,100032.34
2023-01-12T22:48:10.494Z,100041.00
2023-01-12T22:51:14.123Z,100040.19
2023-01-12T22:54:18.050Z,100034.19
2023-01-12T22:57:21.845Z,100029.78
2023-01-12T23:00:26.567Z,100031.44
2023-01-12T23:03:31.737Z,100023.56
2023-01-12T23:06:37.369Z,100020.06
2023-01-12T23:09:40.970Z,100022.66
2023-01-12T23:13:05.574Z,100022.66
2023-01-12T23:16:12.898Z,100016.44
2023-01-12T23:19:17.965Z,100014.69
2023-01-12T23:22:21.577Z,100003.53
2023-01-12T23:25:25.179Z,100004.34
2023-01-12T23:28:28.868Z,100006.81
2023-01-12T23:31:34.529Z,100014.69
2023-01-12T23:34:39.671Z,100005.13
2023-01-12T23:37:44.731Z,100010.34
2023-01-12T23:40:48.386Z,100013.09
2023-01-12T23:43:56.207Z,100025.28
2023-01-12T23:47:01.205Z,100021.72
2023-01-12T23:50:07.608Z,100022.91
2023-01-12T23:53:11.285Z,100030.28
2023-01-12T23:56:18.023Z,100032.28
2023-01-12T23:59:21.646Z,100044.94
